KCBM/CBM METAR and TAF weather

Enter ICAO airport designator
Station Type Date Time Source
KCBM METAR 2020/11/25 21:56 UTC NOAA

KCBM 252156Z AUTO 27004KT 10SM FEW100 20/15 A2995 RMK AO2 SLP144 T01990151 $


Station Type Date Time Source
KCBM Decoded METAR 2020/11/25 21:56 UTC NOAA

Columbus Air Force Base, MS, United States (KCBM) 33-39N 088-27W
Nov 25, 2020 - 04:56 PM EST / 2020.11.25 2156 UTC
Wind: from the W (270 degrees) at 5 MPH (4 KT):0
Visibility: 10 mile(s):0
Sky conditions: mostly clear
Temperature: 67.8 F (19.9 C)
Dew Point: 59.2 F (15.1 C)
Relative Humidity: 73%
Pressure (altimeter): 29.95 in. Hg (1014 hPa)
ob: KCBM 252156Z AUTO 27004KT 10SM FEW100 20/15 A2995 RMK AO2 SLP144 T01990151
cycle: 22

Station Type Date Time Source
KCBM TAF 2020/11/25 18:24 UTC NOAA

TAF
AMD KCBM 251820Z 2518/2620 17010G15KT 9999 FEW018 FEW023 BKN030 QNH2996INS
TEMPO 2518/2522 18015G25KT
BECMG 2521/2522 21012KT 9000 -DZ BKN015 BKN030 BKN070 QNH2993INS
BECMG 2600/2601 21012KT 9999 NSW SCT016 BKN027 QNH2990INS
BECMG 2602/2603 29006KT 9999 FEW016 QNH2998INS TX22/2521Z TN05/2609Z LAST NO
AMDS AFT2518Z NEXT 3009Z

Example: see airport list